sensor_id;sensor_type;location;lat;lon;timestamp;P1;durP1;ratioP1;P2;durP2;ratioP2
7410;SDS011;3747;48.628;9.058;2022-12-19T00:01:27;48.27;;;24.77;;
7410;SDS011;3747;48.628;9.058;2022-12-19T00:03:56;44.60;;;24.47;;
7410;SDS011;3747;48.628;9.058;2022-12-19T00:06:24;45.33;;;23.93;;
7410;SDS011;3747;48.628;9.058;2022-12-19T00:08:52;49.53;;;24.63;;
7410;SDS011;3747;48.628;9.058;2022-12-19T00:11:20;49.33;;;24.03;;
7410;SDS011;3747;48.628;9.058;2022-12-19T00:13:49;39.50;;;21.60;;
7410;SDS011;3747;48.628;9.058;2022-12-19T00:16:17;43.40;;;23.50;;
7410;SDS011;3747;48.628;9.058;2022-12-19T00:18:46;46.13;;;25.47;;
7410;SDS011;3747;48.628;9.058;2022-12-19T00:21:14;49.00;;;26.30;;
7410;SDS011;3747;48.628;9.058;2022-12-19T00:23:42;44.90;;;24.33;;
7410;SDS011;3747;48.628;9.058;2022-12-19T00:26:10;45.47;;;23.73;;
7410;SDS011;3747;48.628;9.058;2022-12-19T00:28:38;46.50;;;25.00;;
7410;SDS011;3747;48.628;9.058;2022-12-19T00:31:07;45.43;;;23.63;;
7410;SDS011;3747;48.628;9.058;2022-12-19T00:33:34;44.77;;;24.03;;
7410;SDS011;3747;48.628;9.058;2022-12-19T00:36:02;50.50;;;24.90;;
7410;SDS011;3747;48.628;9.058;2022-12-19T00:38:30;51.80;;;26.00;;
7410;SDS011;3747;48.628;9.058;2022-12-19T00:41:04;48.50;;;24.97;;
7410;SDS011;3747;48.628;9.058;2022-12-19T00:43:32;50.13;;;25.03;;
7410;SDS011;3747;48.628;9.058;2022-12-19T00:46:00;46.93;;;24.57;;
7410;SDS011;3747;48.628;9.058;2022-12-19T00:48:28;43.17;;;24.73;;
7410;SDS011;3747;48.628;9.058;2022-12-19T00:50:57;48.73;;;24.77;;
7410;SDS011;3747;48.628;9.058;2022-12-19T00:53:24;46.57;;;24.53;;
7410;SDS011;3747;48.628;9.058;2022-12-19T00:55:51;42.83;;;22.10;;
7410;SDS011;3747;48.628;9.058;2022-12-19T00:58:18;48.40;;;24.93;;
7410;SDS011;3747;48.628;9.058;2022-12-19T01:00:44;48.33;;;24.57;;
7410;SDS011;3747;48.628;9.058;2022-12-19T01:03:11;41.97;;;23.40;;
7410;SDS011;3747;48.628;9.058;2022-12-19T01:05:39;47.90;;;24.27;;
7410;SDS011;3747;48.628;9.058;2022-12-19T01:08:06;44.23;;;23.77;;
7410;SDS011;3747;48.628;9.058;2022-12-19T01:10:33;45.90;;;22.00;;
7410;SDS011;3747;48.628;9.058;2022-12-19T01:12:59;37.53;;;20.77;;
7410;SDS011;3747;48.628;9.058;2022-12-19T01:15:25;37.20;;;20.80;;
7410;SDS011;3747;48.628;9.058;2022-12-19T01:17:52;37.47;;;22.17;;
7410;SDS011;3747;48.628;9.058;2022-12-19T01:20:19;38.33;;;20.03;;
7410;SDS011;3747;48.628;9.058;2022-12-19T01:22:48;35.33;;;19.33;;
7410;SDS011;3747;48.628;9.058;2022-12-19T01:25:15;49.37;;;25.33;;
7410;SDS011;3747;48.628;9.058;2022-12-19T01:27:42;45.90;;;25.67;;
7410;SDS011;3747;48.628;9.058;2022-12-19T01:30:09;47.67;;;25.90;;
7410;SDS011;3747;48.628;9.058;2022-12-19T01:32:37;37.87;;;21.60;;
7410;SDS011;3747;48.628;9.058;2022-12-19T01:35:04;39.30;;;20.67;;
7410;SDS011;3747;48.628;9.058;2022-12-19T01:37:31;41.30;;;23.27;;
7410;SDS011;3747;48.628;9.058;2022-12-19T01:39:59;50.37;;;26.10;;
7410;SDS011;3747;48.628;9.058;2022-12-19T01:42:32;43.77;;;22.13;;
7410;SDS011;3747;48.628;9.058;2022-12-19T01:45:04;35.83;;;19.70;;
7410;SDS011;3747;48.628;9.058;2022-12-19T01:47:49;39.93;;;20.60;;
7410;SDS011;3747;48.628;9.058;2022-12-19T01:50:19;41.93;;;20.50;;
7410;SDS011;3747;48.628;9.058;2022-12-19T01:52:50;38.57;;;20.10;;
7410;SDS011;3747;48.628;9.058;2022-12-19T01:55:18;40.40;;;19.33;;
7410;SDS011;3747;48.628;9.058;2022-12-19T01:57:46;41.10;;;20.70;;
7410;SDS011;3747;48.628;9.058;2022-12-19T02:00:13;37.40;;;20.00;;
7410;SDS011;3747;48.628;9.058;2022-12-19T02:02:41;29.73;;;18.70;;
7410;SDS011;3747;48.628;9.058;2022-12-19T02:05:11;37.97;;;18.00;;
7410;SDS011;3747;48.628;9.058;2022-12-19T02:07:38;36.50;;;19.27;;
7410;SDS011;3747;48.628;9.058;2022-12-19T02:10:07;33.70;;;18.40;;
7410;SDS011;3747;48.628;9.058;2022-12-19T02:12:35;35.43;;;19.13;;
7410;SDS011;3747;48.628;9.058;2022-12-19T02:15:05;33.90;;;18.23;;
7410;SDS011;3747;48.628;9.058;2022-12-19T02:17:35;38.13;;;19.17;;
7410;SDS011;3747;48.628;9.058;2022-12-19T02:23:27;37.23;;;20.53;;
7410;SDS011;3747;48.628;9.058;2022-12-19T02:26:25;43.90;;;22.10;;
7410;SDS011;3747;48.628;9.058;2022-12-19T02:29:17;37.40;;;20.03;;
7410;SDS011;3747;48.628;9.058;2022-12-19T02:32:03;42.30;;;21.33;;
7410;SDS011;3747;48.628;9.058;2022-12-19T02:34:35;35.17;;;18.33;;
7410;SDS011;3747;48.628;9.058;2022-12-19T02:37:09;36.93;;;19.17;;
7410;SDS011;3747;48.628;9.058;2022-12-19T02:39:40;35.00;;;18.93;;
7410;SDS011;3747;48.628;9.058;2022-12-19T02:42:14;36.37;;;18.73;;
7410;SDS011;3747;48.628;9.058;2022-12-19T02:44:46;38.47;;;19.60;;
7410;SDS011;3747;48.628;9.058;2022-12-19T02:47:16;32.73;;;18.60;;
7410;SDS011;3747;48.628;9.058;2022-12-19T02:49:45;31.93;;;18.53;;
7410;SDS011;3747;48.628;9.058;2022-12-19T02:52:12;33.17;;;17.97;;
7410;SDS011;3747;48.628;9.058;2022-12-19T02:55:13;34.63;;;17.73;;
7410;SDS011;3747;48.628;9.058;2022-12-19T02:57:50;37.40;;;20.23;;
7410;SDS011;3747;48.628;9.058;2022-12-19T03:00:26;33.60;;;19.20;;
7410;SDS011;3747;48.628;9.058;2022-12-19T03:02:57;38.53;;;22.87;;
7410;SDS011;3747;48.628;9.058;2022-12-19T03:05:35;44.67;;;23.87;;
7410;SDS011;3747;48.628;9.058;2022-12-19T03:08:13;43.33;;;26.30;;
7410;SDS011;3747;48.628;9.058;2022-12-19T03:10:48;41.83;;;23.67;;
7410;SDS011;3747;48.628;9.058;2022-12-19T03:13:22;42.87;;;22.73;;
7410;SDS011;3747;48.628;9.058;2022-12-19T03:15:52;40.33;;;21.87;;
7410;SDS011;3747;48.628;9.058;2022-12-19T03:18:20;40.67;;;22.60;;
7410;SDS011;3747;48.628;9.058;2022-12-19T03:20:48;46.53;;;25.30;;
7410;SDS011;3747;48.628;9.058;2022-12-19T03:23:17;44.67;;;24.27;;
7410;SDS011;3747;48.628;9.058;2022-12-19T03:25:46;44.77;;;21.47;;
7410;SDS011;3747;48.628;9.058;2022-12-19T03:28:18;36.23;;;18.90;;
7410;SDS011;3747;48.628;9.058;2022-12-19T03:30:48;33.50;;;17.67;;
7410;SDS011;3747;48.628;9.058;2022-12-19T03:33:16;35.60;;;18.17;;
7410;SDS011;3747;48.628;9.058;2022-12-19T03:35:47;38.37;;;19.33;;
7410;SDS011;3747;48.628;9.058;2022-12-19T03:38:15;28.13;;;16.47;;
7410;SDS011;3747;48.628;9.058;2022-12-19T03:40:44;31.20;;;16.30;;
7410;SDS011;3747;48.628;9.058;2022-12-19T03:43:12;30.13;;;16.10;;
7410;SDS011;3747;48.628;9.058;2022-12-19T03:45:46;28.97;;;16.70;;
7410;SDS011;3747;48.628;9.058;2022-12-19T03:48:20;28.97;;;15.70;;
7410;SDS011;3747;48.628;9.058;2022-12-19T03:50:52;30.70;;;16.17;;
7410;SDS011;3747;48.628;9.058;2022-12-19T03:53:28;31.33;;;16.73;;
7410;SDS011;3747;48.628;9.058;2022-12-19T03:56:04;28.67;;;15.97;;
7410;SDS011;3747;48.628;9.058;2022-12-19T03:58:39;29.80;;;16.10;;
7410;SDS011;3747;48.628;9.058;2022-12-19T04:01:10;33.00;;;16.93;;
7410;SDS011;3747;48.628;9.058;2022-12-19T04:03:39;34.10;;;17.13;;
7410;SDS011;3747;48.628;9.058;2022-12-19T04:06:06;31.13;;;17.77;;
7410;SDS011;3747;48.628;9.058;2022-12-19T04:08:33;27.53;;;16.60;;
7410;SDS011;3747;48.628;9.058;2022-12-19T04:11:02;28.03;;;15.43;;
7410;SDS011;3747;48.628;9.058;2022-12-19T04:13:32;26.73;;;15.00;;
7410;SDS011;3747;48.628;9.058;2022-12-19T04:16:05;28.67;;;15.70;;
7410;SDS011;3747;48.628;9.058;2022-12-19T04:18:38;30.07;;;17.53;;
7410;SDS011;3747;48.628;9.058;2022-12-19T04:21:10;27.80;;;15.87;;
7410;SDS011;3747;48.628;9.058;2022-12-19T04:23:42;32.73;;;17.50;;
7410;SDS011;3747;48.628;9.058;2022-12-19T04:26:12;27.63;;;14.90;;
7410;SDS011;3747;48.628;9.058;2022-12-19T04:28:42;29.00;;;16.23;;
7410;SDS011;3747;48.628;9.058;2022-12-19T04:31:13;28.90;;;16.43;;
7410;SDS011;3747;48.628;9.058;2022-12-19T04:33:42;30.00;;;16.33;;
7410;SDS011;3747;48.628;9.058;2022-12-19T04:36:09;26.07;;;15.13;;
7410;SDS011;3747;48.628;9.058;2022-12-19T04:38:36;31.70;;;16.70;;
7410;SDS011;3747;48.628;9.058;2022-12-19T04:41:03;24.03;;;13.73;;
7410;SDS011;3747;48.628;9.058;2022-12-19T04:43:30;30.50;;;16.23;;
7410;SDS011;3747;48.628;9.058;2022-12-19T04:45:57;30.37;;;17.27;;
7410;SDS011;3747;48.628;9.058;2022-12-19T04:48:23;28.33;;;16.03;;
7410;SDS011;3747;48.628;9.058;2022-12-19T04:50:52;28.10;;;15.70;;
7410;SDS011;3747;48.628;9.058;2022-12-19T04:53:18;28.10;;;14.70;;
7410;SDS011;3747;48.628;9.058;2022-12-19T04:55:45;26.57;;;13.97;;
7410;SDS011;3747;48.628;9.058;2022-12-19T04:58:12;28.57;;;13.93;;
7410;SDS011;3747;48.628;9.058;2022-12-19T05:00:39;30.13;;;15.43;;
7410;SDS011;3747;48.628;9.058;2022-12-19T05:03:05;29.00;;;15.20;;
7410;SDS011;3747;48.628;9.058;2022-12-19T05:05:32;30.60;;;14.87;;
7410;SDS011;3747;48.628;9.058;2022-12-19T05:08:00;29.30;;;15.57;;
7410;SDS011;3747;48.628;9.058;2022-12-19T05:10:27;28.40;;;14.20;;
7410;SDS011;3747;48.628;9.058;2022-12-19T05:12:53;28.57;;;16.07;;
7410;SDS011;3747;48.628;9.058;2022-12-19T05:15:20;27.77;;;14.27;;
7410;SDS011;3747;48.628;9.058;2022-12-19T05:17:47;32.10;;;16.40;;
7410;SDS011;3747;48.628;9.058;2022-12-19T05:20:14;29.60;;;16.27;;
7410;SDS011;3747;48.628;9.058;2022-12-19T05:22:41;29.57;;;16.30;;
7410;SDS011;3747;48.628;9.058;2022-12-19T05:25:09;30.17;;;16.50;;
7410;SDS011;3747;48.628;9.058;2022-12-19T05:27:35;23.60;;;14.20;;
7410;SDS011;3747;48.628;9.058;2022-12-19T05:30:02;22.20;;;13.23;;
7410;SDS011;3747;48.628;9.058;2022-12-19T05:32:30;24.10;;;13.60;;
7410;SDS011;3747;48.628;9.058;2022-12-19T05:34:58;27.43;;;15.17;;
7410;SDS011;3747;48.628;9.058;2022-12-19T05:37:24;23.30;;;14.93;;
7410;SDS011;3747;48.628;9.058;2022-12-19T05:39:51;24.93;;;15.70;;
7410;SDS011;3747;48.628;9.058;2022-12-19T05:42:19;23.93;;;14.33;;
7410;SDS011;3747;48.628;9.058;2022-12-19T05:44:46;23.57;;;14.00;;
7410;SDS011;3747;48.628;9.058;2022-12-19T05:47:13;24.33;;;13.60;;
7410;SDS011;3747;48.628;9.058;2022-12-19T05:49:39;23.07;;;14.00;;
7410;SDS011;3747;48.628;9.058;2022-12-19T05:52:06;23.03;;;14.53;;
7410;SDS011;3747;48.628;9.058;2022-12-19T05:54:36;23.50;;;13.53;;
7410;SDS011;3747;48.628;9.058;2022-12-19T05:57:03;27.17;;;14.70;;
7410;SDS011;3747;48.628;9.058;2022-12-19T05:59:31;25.67;;;14.27;;
7410;SDS011;3747;48.628;9.058;2022-12-19T06:01:57;24.97;;;14.20;;
7410;SDS011;3747;48.628;9.058;2022-12-19T06:04:24;25.33;;;15.00;;
7410;SDS011;3747;48.628;9.058;2022-12-19T06:06:51;29.30;;;14.90;;
7410;SDS011;3747;48.628;9.058;2022-12-19T06:09:18;26.60;;;15.17;;
7410;SDS011;3747;48.628;9.058;2022-12-19T06:11:44;30.23;;;18.10;;
7410;SDS011;3747;48.628;9.058;2022-12-19T06:14:11;32.87;;;19.27;;
7410;SDS011;3747;48.628;9.058;2022-12-19T06:16:39;32.93;;;21.03;;
7410;SDS011;3747;48.628;9.058;2022-12-19T06:19:06;25.93;;;16.13;;
7410;SDS011;3747;48.628;9.058;2022-12-19T06:21:32;30.73;;;17.70;;
7410;SDS011;3747;48.628;9.058;2022-12-19T06:23:59;28.47;;;15.33;;
7410;SDS011;3747;48.628;9.058;2022-12-19T06:26:26;28.27;;;16.50;;
7410;SDS011;3747;48.628;9.058;2022-12-19T06:28:53;30.63;;;18.10;;
7410;SDS011;3747;48.628;9.058;2022-12-19T06:31:21;29.03;;;17.63;;
7410;SDS011;3747;48.628;9.058;2022-12-19T06:33:50;31.10;;;16.93;;
7410;SDS011;3747;48.628;9.058;2022-12-19T06:36:19;29.60;;;15.47;;
7410;SDS011;3747;48.628;9.058;2022-12-19T06:38:47;28.27;;;15.53;;
7410;SDS011;3747;48.628;9.058;2022-12-19T06:41:14;25.63;;;14.80;;
7410;SDS011;3747;48.628;9.058;2022-12-19T06:43:58;25.93;;;15.50;;
7410;SDS011;3747;48.628;9.058;2022-12-19T06:46:26;25.67;;;13.50;;
7410;SDS011;3747;48.628;9.058;2022-12-19T06:48:54;31.17;;;16.87;;
7410;SDS011;3747;48.628;9.058;2022-12-19T06:51:21;34.90;;;17.50;;
7410;SDS011;3747;48.628;9.058;2022-12-19T06:53:48;26.43;;;14.73;;
7410;SDS011;3747;48.628;9.058;2022-12-19T06:56:16;23.23;;;14.53;;
7410;SDS011;3747;48.628;9.058;2022-12-19T06:58:43;25.50;;;14.13;;
7410;SDS011;3747;48.628;9.058;2022-12-19T07:01:14;25.53;;;13.83;;
7410;SDS011;3747;48.628;9.058;2022-12-19T07:03:42;25.60;;;13.20;;
7410;SDS011;3747;48.628;9.058;2022-12-19T07:06:11;29.83;;;15.43;;
7410;SDS011;3747;48.628;9.058;2022-12-19T07:08:37;26.37;;;14.07;;
7410;SDS011;3747;48.628;9.058;2022-12-19T07:11:04;24.80;;;14.03;;
7410;SDS011;3747;48.628;9.058;2022-12-19T07:13:31;24.27;;;14.03;;
7410;SDS011;3747;48.628;9.058;2022-12-19T07:15:59;25.23;;;13.80;;
7410;SDS011;3747;48.628;9.058;2022-12-19T07:18:27;24.40;;;15.33;;
7410;SDS011;3747;48.628;9.058;2022-12-19T07:20:56;24.40;;;15.97;;
7410;SDS011;3747;48.628;9.058;2022-12-19T07:23:25;31.10;;;16.17;;
7410;SDS011;3747;48.628;9.058;2022-12-19T07:25:51;27.20;;;16.00;;
7410;SDS011;3747;48.628;9.058;2022-12-19T07:28:18;29.07;;;16.83;;
7410;SDS011;3747;48.628;9.058;2022-12-19T07:30:45;27.80;;;16.83;;
7410;SDS011;3747;48.628;9.058;2022-12-19T07:33:12;29.83;;;16.63;;
7410;SDS011;3747;48.628;9.058;2022-12-19T07:35:39;27.83;;;16.43;;
7410;SDS011;3747;48.628;9.058;2022-12-19T07:38:06;34.83;;;16.63;;
7410;SDS011;3747;48.628;9.058;2022-12-19T07:40:34;30.03;;;16.17;;
7410;SDS011;3747;48.628;9.058;2022-12-19T07:43:01;28.33;;;16.17;;
7410;SDS011;3747;48.628;9.058;2022-12-19T07:45:29;25.80;;;15.60;;
7410;SDS011;3747;48.628;9.058;2022-12-19T07:47:58;26.50;;;15.67;;
7410;SDS011;3747;48.628;9.058;2022-12-19T07:50:25;27.00;;;16.07;;
7410;SDS011;3747;48.628;9.058;2022-12-19T07:52:52;24.07;;;15.33;;
7410;SDS011;3747;48.628;9.058;2022-12-19T07:55:19;25.03;;;14.87;;
7410;SDS011;3747;48.628;9.058;2022-12-19T07:57:47;27.40;;;15.37;;
7410;SDS011;3747;48.628;9.058;2022-12-19T08:00:14;26.33;;;15.80;;
7410;SDS011;3747;48.628;9.058;2022-12-19T08:02:41;27.17;;;16.50;;
7410;SDS011;3747;48.628;9.058;2022-12-19T08:05:08;32.33;;;17.57;;
7410;SDS011;3747;48.628;9.058;2022-12-19T08:07:35;30.70;;;17.20;;
7410;SDS011;3747;48.628;9.058;2022-12-19T08:10:02;32.20;;;18.83;;
7410;SDS011;3747;48.628;9.058;2022-12-19T08:12:31;29.40;;;16.83;;
7410;SDS011;3747;48.628;9.058;2022-12-19T08:14:59;28.77;;;17.17;;
7410;SDS011;3747;48.628;9.058;2022-12-19T08:17:26;33.13;;;21.17;;
7410;SDS011;3747;48.628;9.058;2022-12-19T08:19:53;27.70;;;17.00;;
7410;SDS011;3747;48.628;9.058;2022-12-19T08:22:20;26.13;;;17.23;;
7410;SDS011;3747;48.628;9.058;2022-12-19T08:24:47;28.30;;;17.23;;
7410;SDS011;3747;48.628;9.058;2022-12-19T08:27:14;24.43;;;15.43;;
7410;SDS011;3747;48.628;9.058;2022-12-19T08:29:41;28.27;;;15.10;;
7410;SDS011;3747;48.628;9.058;2022-12-19T08:32:09;21.80;;;13.13;;
7410;SDS011;3747;48.628;9.058;2022-12-19T08:34:36;21.50;;;12.43;;
7410;SDS011;3747;48.628;9.058;2022-12-19T08:37:03;22.03;;;12.70;;
7410;SDS011;3747;48.628;9.058;2022-12-19T08:39:30;23.87;;;13.37;;
7410;SDS011;3747;48.628;9.058;2022-12-19T08:41:56;21.90;;;12.30;;
7410;SDS011;3747;48.628;9.058;2022-12-19T08:44:23;19.70;;;11.97;;
7410;SDS011;3747;48.628;9.058;2022-12-19T08:46:50;17.43;;;11.87;;
7410;SDS011;3747;48.628;9.058;2022-12-19T08:49:18;17.53;;;10.40;;
7410;SDS011;3747;48.628;9.058;2022-12-19T08:51:45;23.30;;;13.43;;
7410;SDS011;3747;48.628;9.058;2022-12-19T08:54:12;18.70;;;13.73;;
7410;SDS011;3747;48.628;9.058;2022-12-19T08:56:39;23.77;;;14.70;;
7410;SDS011;3747;48.628;9.058;2022-12-19T08:59:06;21.67;;;14.13;;
7410;SDS011;3747;48.628;9.058;2022-12-19T09:01:33;23.03;;;15.00;;
7410;SDS011;3747;48.628;9.058;2022-12-19T09:03:59;27.37;;;16.93;;
7410;SDS011;3747;48.628;9.058;2022-12-19T09:06:27;25.00;;;16.70;;
7410;SDS011;3747;48.628;9.058;2022-12-19T09:08:54;22.97;;;15.43;;
7410;SDS011;3747;48.628;9.058;2022-12-19T09:11:21;21.87;;;15.77;;
7410;SDS011;3747;48.628;9.058;2022-12-19T09:13:50;24.23;;;15.40;;
7410;SDS011;3747;48.628;9.058;2022-12-19T09:16:20;22.30;;;14.97;;
7410;SDS011;3747;48.628;9.058;2022-12-19T09:18:48;22.33;;;14.53;;
7410;SDS011;3747;48.628;9.058;2022-12-19T09:21:17;21.47;;;13.67;;
7410;SDS011;3747;48.628;9.058;2022-12-19T09:23:47;19.90;;;10.70;;
7410;SDS011;3747;48.628;9.058;2022-12-19T09:26:17;17.57;;;11.10;;
7410;SDS011;3747;48.628;9.058;2022-12-19T09:28:45;16.97;;;10.83;;
7410;SDS011;3747;48.628;9.058;2022-12-19T09:31:13;19.17;;;10.60;;
7410;SDS011;3747;48.628;9.058;2022-12-19T09:33:41;15.30;;;10.37;;
7410;SDS011;3747;48.628;9.058;2022-12-19T09:36:09;17.27;;;11.43;;
7410;SDS011;3747;48.628;9.058;2022-12-19T09:38:41;14.53;;;9.80;;
7410;SDS011;3747;48.628;9.058;2022-12-19T09:41:15;20.30;;;11.43;;
7410;SDS011;3747;48.628;9.058;2022-12-19T09:43:57;17.70;;;10.57;;
7410;SDS011;3747;48.628;9.058;2022-12-19T09:46:31;17.77;;;11.53;;
7410;SDS011;3747;48.628;9.058;2022-12-19T09:51:43;13.77;;;10.50;;
7410;SDS011;3747;48.628;9.058;2022-12-19T09:54:15;13.97;;;8.93;;
7410;SDS011;3747;48.628;9.058;2022-12-19T09:56:49;13.30;;;8.90;;
7410;SDS011;3747;48.628;9.058;2022-12-19T09:59:24;11.43;;;7.93;;
7410;SDS011;3747;48.628;9.058;2022-12-19T10:01:54;15.57;;;9.63;;
7410;SDS011;3747;48.628;9.058;2022-12-19T10:04:26;15.37;;;10.07;;
7410;SDS011;3747;48.628;9.058;2022-12-19T10:06:57;13.37;;;9.00;;
7410;SDS011;3747;48.628;9.058;2022-12-19T10:09:25;15.90;;;9.27;;
7410;SDS011;3747;48.628;9.058;2022-12-19T10:12:04;12.20;;;8.77;;
7410;SDS011;3747;48.628;9.058;2022-12-19T10:14:40;12.57;;;8.83;;
7410;SDS011;3747;48.628;9.058;2022-12-19T10:17:21;10.57;;;8.50;;
7410;SDS011;3747;48.628;9.058;2022-12-19T10:19:58;14.23;;;8.53;;
7410;SDS011;3747;48.628;9.058;2022-12-19T10:22:38;12.77;;;9.10;;
7410;SDS011;3747;48.628;9.058;2022-12-19T10:25:18;14.50;;;8.90;;
7410;SDS011;3747;48.628;9.058;2022-12-19T10:27:56;13.93;;;8.87;;
7410;SDS011;3747;48.628;9.058;2022-12-19T10:30:27;12.20;;;8.13;;
7410;SDS011;3747;48.628;9.058;2022-12-19T10:33:02;13.80;;;8.67;;
7410;SDS011;3747;48.628;9.058;2022-12-19T10:35:39;14.60;;;9.33;;
7410;SDS011;3747;48.628;9.058;2022-12-19T10:38:12;12.97;;;8.70;;
7410;SDS011;3747;48.628;9.058;2022-12-19T10:41:03;10.60;;;8.53;;
7410;SDS011;3747;48.628;9.058;2022-12-19T10:43:40;11.47;;;8.40;;
7410;SDS011;3747;48.628;9.058;2022-12-19T10:46:14;11.53;;;8.17;;
7410;SDS011;3747;48.628;9.058;2022-12-19T10:48:46;12.33;;;7.70;;
7410;SDS011;3747;48.628;9.058;2022-12-19T10:51:18;11.57;;;7.83;;
7410;SDS011;3747;48.628;9.058;2022-12-19T10:53:51;12.17;;;8.50;;
7410;SDS011;3747;48.628;9.058;2022-12-19T10:56:20;10.53;;;8.30;;
7410;SDS011;3747;48.628;9.058;2022-12-19T10:58:51;10.90;;;7.47;;
7410;SDS011;3747;48.628;9.058;2022-12-19T11:01:23;12.13;;;7.73;;
7410;SDS011;3747;48.628;9.058;2022-12-19T11:03:53;10.30;;;8.20;;
7410;SDS011;3747;48.628;9.058;2022-12-19T11:07:03;11.00;;;8.03;;
7410;SDS011;3747;48.628;9.058;2022-12-19T11:09:34;9.67;;;7.33;;
7410;SDS011;3747;48.628;9.058;2022-12-19T11:12:09;10.27;;;7.47;;
7410;SDS011;3747;48.628;9.058;2022-12-19T11:14:53;9.97;;;7.33;;
7410;SDS011;3747;48.628;9.058;2022-12-19T11:17:37;10.77;;;7.80;;
7410;SDS011;3747;48.628;9.058;2022-12-19T11:20:09;12.50;;;8.00;;
7410;SDS011;3747;48.628;9.058;2022-12-19T11:22:37;10.10;;;7.27;;
7410;SDS011;3747;48.628;9.058;2022-12-19T11:25:05;8.87;;;6.90;;
7410;SDS011;3747;48.628;9.058;2022-12-19T11:27:41;11.17;;;7.70;;
7410;SDS011;3747;48.628;9.058;2022-12-19T11:32:47;9.07;;;7.60;;
7410;SDS011;3747;48.628;9.058;2022-12-19T11:35:31;9.70;;;7.57;;
7410;SDS011;3747;48.628;9.058;2022-12-19T11:38:00;10.60;;;7.80;;
7410;SDS011;3747;48.628;9.058;2022-12-19T11:40:30;10.80;;;8.13;;
7410;SDS011;3747;48.628;9.058;2022-12-19T11:43:01;9.97;;;7.37;;
7410;SDS011;3747;48.628;9.058;2022-12-19T11:45:38;11.47;;;7.33;;
7410;SDS011;3747;48.628;9.058;2022-12-19T11:48:10;10.30;;;7.03;;
7410;SDS011;3747;48.628;9.058;2022-12-19T11:50:42;10.13;;;7.33;;
7410;SDS011;3747;48.628;9.058;2022-12-19T11:53:26;9.83;;;7.83;;
7410;SDS011;3747;48.628;9.058;2022-12-19T11:55:57;9.83;;;7.60;;
7410;SDS011;3747;48.628;9.058;2022-12-19T11:58:27;12.73;;;7.73;;
7410;SDS011;3747;48.628;9.058;2022-12-19T12:00:57;9.43;;;8.40;;
7410;SDS011;3747;48.628;9.058;2022-12-19T12:03:38;14.57;;;11.03;;
7410;SDS011;3747;48.628;9.058;2022-12-19T12:06:10;11.97;;;8.10;;
7410;SDS011;3747;48.628;9.058;2022-12-19T12:08:49;11.87;;;9.10;;
7410;SDS011;3747;48.628;9.058;2022-12-19T12:11:24;11.43;;;8.00;;
7410;SDS011;3747;48.628;9.058;2022-12-19T12:14:01;10.10;;;7.00;;
7410;SDS011;3747;48.628;9.058;2022-12-19T12:16:43;10.07;;;7.37;;
7410;SDS011;3747;48.628;9.058;2022-12-19T12:19:23;9.13;;;7.17;;
7410;SDS011;3747;48.628;9.058;2022-12-19T12:22:07;9.60;;;7.43;;
7410;SDS011;3747;48.628;9.058;2022-12-19T12:24:42;11.37;;;8.17;;
7410;SDS011;3747;48.628;9.058;2022-12-19T12:27:23;12.33;;;8.13;;
7410;SDS011;3747;48.628;9.058;2022-12-19T12:30:03;13.43;;;7.63;;
7410;SDS011;3747;48.628;9.058;2022-12-19T12:32:42;13.43;;;8.80;;
7410;SDS011;3747;48.628;9.058;2022-12-19T12:35:22;12.30;;;8.43;;
7410;SDS011;3747;48.628;9.058;2022-12-19T12:37:58;10.67;;;7.90;;
7410;SDS011;3747;48.628;9.058;2022-12-19T12:40:51;9.73;;;7.23;;
7410;SDS011;3747;48.628;9.058;2022-12-19T12:49:26;9.97;;;7.77;;
7410;SDS011;3747;48.628;9.058;2022-12-19T12:52:10;13.53;;;8.83;;
7410;SDS011;3747;48.628;9.058;2022-12-19T12:54:54;14.63;;;9.47;;
7410;SDS011;3747;48.628;9.058;2022-12-19T12:57:31;16.93;;;11.40;;
7410;SDS011;3747;48.628;9.058;2022-12-19T13:00:13;17.77;;;13.73;;
7410;SDS011;3747;48.628;9.058;2022-12-19T13:02:46;14.03;;;10.70;;
7410;SDS011;3747;48.628;9.058;2022-12-19T13:05:28;12.10;;;8.90;;
7410;SDS011;3747;48.628;9.058;2022-12-19T13:11:10;11.73;;;8.10;;
7410;SDS011;3747;48.628;9.058;2022-12-19T13:14:00;11.87;;;8.03;;
7410;SDS011;3747;48.628;9.058;2022-12-19T13:19:14;12.00;;;7.50;;
7410;SDS011;3747;48.628;9.058;2022-12-19T13:24:48;11.17;;;8.40;;
7410;SDS011;3747;48.628;9.058;2022-12-19T13:27:33;9.00;;;6.80;;
7410;SDS011;3747;48.628;9.058;2022-12-19T13:30:11;11.00;;;7.47;;
7410;SDS011;3747;48.628;9.058;2022-12-19T13:35:35;11.23;;;7.90;;
7410;SDS011;3747;48.628;9.058;2022-12-19T13:38:13;10.27;;;7.50;;
7410;SDS011;3747;48.628;9.058;2022-12-19T13:40:54;10.27;;;7.10;;
7410;SDS011;3747;48.628;9.058;2022-12-19T13:43:24;9.30;;;7.37;;
7410;SDS011;3747;48.628;9.058;2022-12-19T13:46:27;11.10;;;8.30;;
7410;SDS011;3747;48.628;9.058;2022-12-19T13:49:05;15.17;;;9.13;;
7410;SDS011;3747;48.628;9.058;2022-12-19T13:51:44;15.63;;;8.87;;
7410;SDS011;3747;48.628;9.058;2022-12-19T13:54:17;9.90;;;7.93;;
7410;SDS011;3747;48.628;9.058;2022-12-19T13:56:46;10.97;;;8.03;;
7410;SDS011;3747;48.628;9.058;2022-12-19T13:59:13;10.97;;;7.40;;
7410;SDS011;3747;48.628;9.058;2022-12-19T14:01:40;11.40;;;8.47;;
7410;SDS011;3747;48.628;9.058;2022-12-19T14:04:08;14.03;;;8.43;;
7410;SDS011;3747;48.628;9.058;2022-12-19T14:06:38;14.73;;;9.67;;
7410;SDS011;3747;48.628;9.058;2022-12-19T14:09:08;14.77;;;9.73;;
7410;SDS011;3747;48.628;9.058;2022-12-19T14:11:47;15.33;;;10.33;;
7410;SDS011;3747;48.628;9.058;2022-12-19T14:14:16;12.60;;;9.07;;
7410;SDS011;3747;48.628;9.058;2022-12-19T14:17:04;12.67;;;8.67;;
7410;SDS011;3747;48.628;9.058;2022-12-19T14:19:36;13.00;;;8.07;;
7410;SDS011;3747;48.628;9.058;2022-12-19T14:22:10;11.87;;;8.97;;
7410;SDS011;3747;48.628;9.058;2022-12-19T14:24:40;13.57;;;9.30;;
7410;SDS011;3747;48.628;9.058;2022-12-19T14:27:17;15.03;;;9.97;;
7410;SDS011;3747;48.628;9.058;2022-12-19T14:29:52;13.90;;;10.30;;
7410;SDS011;3747;48.628;9.058;2022-12-19T14:32:19;17.03;;;11.53;;
7410;SDS011;3747;48.628;9.058;2022-12-19T14:34:48;14.67;;;10.67;;
7410;SDS011;3747;48.628;9.058;2022-12-19T14:37:24;13.27;;;9.50;;
7410;SDS011;3747;48.628;9.058;2022-12-19T14:39:57;13.53;;;10.30;;
7410;SDS011;3747;48.628;9.058;2022-12-19T14:42:25;15.67;;;9.97;;
7410;SDS011;3747;48.628;9.058;2022-12-19T14:45:29;14.13;;;9.50;;
7410;SDS011;3747;48.628;9.058;2022-12-19T14:47:57;13.60;;;9.07;;
7410;SDS011;3747;48.628;9.058;2022-12-19T14:50:25;14.13;;;8.67;;
7410;SDS011;3747;48.628;9.058;2022-12-19T14:53:04;12.67;;;7.80;;
7410;SDS011;3747;48.628;9.058;2022-12-19T14:55:33;10.73;;;7.17;;
7410;SDS011;3747;48.628;9.058;2022-12-19T14:58:06;11.80;;;7.80;;
7410;SDS011;3747;48.628;9.058;2022-12-19T15:00:41;8.00;;;6.50;;
7410;SDS011;3747;48.628;9.058;2022-12-19T15:03:12;9.80;;;6.90;;
7410;SDS011;3747;48.628;9.058;2022-12-19T15:05:42;8.23;;;5.70;;
7410;SDS011;3747;48.628;9.058;2022-12-19T15:08:09;10.13;;;6.97;;
7410;SDS011;3747;48.628;9.058;2022-12-19T15:10:38;10.03;;;7.20;;
7410;SDS011;3747;48.628;9.058;2022-12-19T15:15:50;10.00;;;7.23;;
7410;SDS011;3747;48.628;9.058;2022-12-19T15:18:20;8.80;;;6.67;;
7410;SDS011;3747;48.628;9.058;2022-12-19T15:20:49;11.73;;;7.43;;
7410;SDS011;3747;48.628;9.058;2022-12-19T15:23:17;9.30;;;7.40;;
7410;SDS011;3747;48.628;9.058;2022-12-19T15:25:45;9.50;;;7.73;;
7410;SDS011;3747;48.628;9.058;2022-12-19T15:28:13;9.83;;;7.50;;
7410;SDS011;3747;48.628;9.058;2022-12-19T15:30:42;10.43;;;8.00;;
7410;SDS011;3747;48.628;9.058;2022-12-19T15:33:13;12.63;;;8.73;;
7410;SDS011;3747;48.628;9.058;2022-12-19T15:35:40;11.47;;;8.37;;
7410;SDS011;3747;48.628;9.058;2022-12-19T15:38:07;12.07;;;7.37;;
7410;SDS011;3747;48.628;9.058;2022-12-19T15:40:35;12.13;;;8.03;;
7410;SDS011;3747;48.628;9.058;2022-12-19T15:43:04;12.33;;;8.33;;
7410;SDS011;3747;48.628;9.058;2022-12-19T15:45:31;9.70;;;7.23;;